sensor_id;sensor_type;location;lat;lon;timestamp;temperature;humidity
15638;DHT22;26604;53.596;10.042;2023-09-19T00:02:22;16.60;99.90
15638;DHT22;26604;53.596;10.042;2023-09-19T00:04:49;16.70;99.90
15638;DHT22;26604;53.596;10.042;2023-09-19T00:07:17;16.70;99.90
15638;DHT22;26604;53.596;10.042;2023-09-19T00:09:44;16.80;99.90
15638;DHT22;26604;53.596;10.042;2023-09-19T00:12:12;16.70;99.90
15638;DHT22;26604;53.596;10.042;2023-09-19T00:14:39;16.70;99.90
15638;DHT22;26604;53.596;10.042;2023-09-19T00:17:07;16.70;99.90
15638;DHT22;26604;53.596;10.042;2023-09-19T00:19:34;16.70;99.90
15638;DHT22;26604;53.596;10.042;2023-09-19T00:22:01;16.60;99.90
15638;DHT22;26604;53.596;10.042;2023-09-19T00:24:28;16.60;99.90
15638;DHT22;26604;53.596;10.042;2023-09-19T00:26:55;16.50;99.90
15638;DHT22;26604;53.596;10.042;2023-09-19T00:29:25;16.50;99.90
15638;DHT22;26604;53.596;10.042;2023-09-19T00:31:55;16.40;99.90
15638;DHT22;26604;53.596;10.042;2023-09-19T00:34:23;16.40;99.90
15638;DHT22;26604;53.596;10.042;2023-09-19T00:36:51;16.40;99.90
15638;DHT22;26604;53.596;10.042;2023-09-19T00:39:20;16.40;99.90
15638;DHT22;26604;53.596;10.042;2023-09-19T00:41:47;16.30;99.90
15638;DHT22;26604;53.596;10.042;2023-09-19T00:44:14;16.30;99.90
15638;DHT22;26604;53.596;10.042;2023-09-19T00:46:43;16.30;99.90
15638;DHT22;26604;53.596;10.042;2023-09-19T00:49:12;16.30;99.90
15638;DHT22;26604;53.596;10.042;2023-09-19T00:51:42;16.20;99.90
15638;DHT22;26604;53.596;10.042;2023-09-19T00:54:13;16.20;99.90
15638;DHT22;26604;53.596;10.042;2023-09-19T00:56:44;16.20;99.90
15638;DHT22;26604;53.596;10.042;2023-09-19T00:59:11;16.20;99.90
15638;DHT22;26604;53.596;10.042;2023-09-19T01:01:39;16.20;99.90
15638;DHT22;26604;53.596;10.042;2023-09-19T01:04:06;16.20;99.90
15638;DHT22;26604;53.596;10.042;2023-09-19T01:06:34;16.20;99.90
15638;DHT22;26604;53.596;10.042;2023-09-19T01:09:03;16.10;99.90
15638;DHT22;26604;53.596;10.042;2023-09-19T01:11:35;16.10;99.90
15638;DHT22;26604;53.596;10.042;2023-09-19T01:14:16;16.10;99.90
15638;DHT22;26604;53.596;10.042;2023-09-19T01:16:50;16.20;99.90
15638;DHT22;26604;53.596;10.042;2023-09-19T01:19:51;16.20;99.90
15638;DHT22;26604;53.596;10.042;2023-09-19T01:22:30;16.10;99.90
15638;DHT22;26604;53.596;10.042;2023-09-19T01:28:28;16.00;99.90
15638;DHT22;26604;53.596;10.042;2023-09-19T01:30:59;16.00;99.90
15638;DHT22;26604;53.596;10.042;2023-09-19T01:33:29;15.90;99.90
15638;DHT22;26604;53.596;10.042;2023-09-19T01:36:16;15.90;99.90
15638;DHT22;26604;53.596;10.042;2023-09-19T01:38:43;15.90;99.90
15638;DHT22;26604;53.596;10.042;2023-09-19T01:41:12;15.90;99.90
15638;DHT22;26604;53.596;10.042;2023-09-19T01:43:46;16.00;99.90
15638;DHT22;26604;53.596;10.042;2023-09-19T01:46:19;16.10;99.90
15638;DHT22;26604;53.596;10.042;2023-09-19T01:48:54;16.20;99.90
15638;DHT22;26604;53.596;10.042;2023-09-19T01:51:31;16.20;99.90
15638;DHT22;26604;53.596;10.042;2023-09-19T01:54:02;16.20;99.90
15638;DHT22;26604;53.596;10.042;2023-09-19T01:56:36;16.20;99.90
15638;DHT22;26604;53.596;10.042;2023-09-19T01:59:07;16.10;99.90
15638;DHT22;26604;53.596;10.042;2023-09-19T02:01:38;16.10;99.90
15638;DHT22;26604;53.596;10.042;2023-09-19T02:04:06;16.20;99.90
15638;DHT22;26604;53.596;10.042;2023-09-19T02:06:35;16.10;99.90
15638;DHT22;26604;53.596;10.042;2023-09-19T02:09:02;16.10;99.90
15638;DHT22;26604;53.596;10.042;2023-09-19T02:11:29;16.00;99.90
15638;DHT22;26604;53.596;10.042;2023-09-19T02:13:56;16.00;99.90
15638;DHT22;26604;53.596;10.042;2023-09-19T02:16:25;15.80;99.90
15638;DHT22;26604;53.596;10.042;2023-09-19T02:18:53;15.70;99.90
15638;DHT22;26604;53.596;10.042;2023-09-19T02:21:20;15.70;99.90
15638;DHT22;26604;53.596;10.042;2023-09-19T02:23:48;15.60;99.90
15638;DHT22;26604;53.596;10.042;2023-09-19T02:26:15;15.50;99.90
15638;DHT22;26604;53.596;10.042;2023-09-19T02:28:41;15.40;99.90
15638;DHT22;26604;53.596;10.042;2023-09-19T02:31:08;15.40;99.90
15638;DHT22;26604;53.596;10.042;2023-09-19T02:33:36;15.40;99.90
15638;DHT22;26604;53.596;10.042;2023-09-19T02:36:05;15.40;99.90
15638;DHT22;26604;53.596;10.042;2023-09-19T02:38:33;15.40;99.90
15638;DHT22;26604;53.596;10.042;2023-09-19T02:41:00;15.30;99.90
15638;DHT22;26604;53.596;10.042;2023-09-19T02:43:27;15.30;99.90
15638;DHT22;26604;53.596;10.042;2023-09-19T02:45:54;15.30;99.90
15638;DHT22;26604;53.596;10.042;2023-09-19T02:48:22;15.50;99.90
15638;DHT22;26604;53.596;10.042;2023-09-19T02:50:50;15.50;99.90
15638;DHT22;26604;53.596;10.042;2023-09-19T02:53:19;15.60;99.90
15638;DHT22;26604;53.596;10.042;2023-09-19T02:55:47;15.70;99.90
15638;DHT22;26604;53.596;10.042;2023-09-19T02:58:14;15.80;99.90
15638;DHT22;26604;53.596;10.042;2023-09-19T03:00:41;15.80;99.90
15638;DHT22;26604;53.596;10.042;2023-09-19T03:03:13;15.90;99.90
15638;DHT22;26604;53.596;10.042;2023-09-19T03:05:41;15.90;99.90
15638;DHT22;26604;53.596;10.042;2023-09-19T03:08:14;16.00;99.90
15638;DHT22;26604;53.596;10.042;2023-09-19T03:10:46;16.00;99.90
15638;DHT22;26604;53.596;10.042;2023-09-19T03:13:13;16.00;99.90
15638;DHT22;26604;53.596;10.042;2023-09-19T03:15:41;16.00;99.90
15638;DHT22;26604;53.596;10.042;2023-09-19T03:18:09;16.00;99.90
15638;DHT22;26604;53.596;10.042;2023-09-19T03:20:36;16.10;99.90
15638;DHT22;26604;53.596;10.042;2023-09-19T03:23:04;16.10;99.90
15638;DHT22;26604;53.596;10.042;2023-09-19T03:25:33;16.10;99.90
15638;DHT22;26604;53.596;10.042;2023-09-19T03:28:03;16.10;99.90
15638;DHT22;26604;53.596;10.042;2023-09-19T03:30:31;16.10;99.90
15638;DHT22;26604;53.596;10.042;2023-09-19T03:32:59;16.10;99.90
15638;DHT22;26604;53.596;10.042;2023-09-19T03:35:26;16.10;99.90
15638;DHT22;26604;53.596;10.042;2023-09-19T03:37:53;16.10;99.90
15638;DHT22;26604;53.596;10.042;2023-09-19T03:40:21;16.10;99.90
15638;DHT22;26604;53.596;10.042;2023-09-19T03:42:49;16.10;99.90
15638;DHT22;26604;53.596;10.042;2023-09-19T03:45:17;16.00;99.90
15638;DHT22;26604;53.596;10.042;2023-09-19T03:47:44;16.00;99.90
15638;DHT22;26604;53.596;10.042;2023-09-19T03:50:12;16.00;99.90
15638;DHT22;26604;53.596;10.042;2023-09-19T03:52:42;15.90;99.90
15638;DHT22;26604;53.596;10.042;2023-09-19T03:55:09;15.90;99.90
15638;DHT22;26604;53.596;10.042;2023-09-19T03:57:37;15.90;99.90
15638;DHT22;26604;53.596;10.042;2023-09-19T04:00:04;15.90;99.90
15638;DHT22;26604;53.596;10.042;2023-09-19T04:02:38;15.90;99.90
15638;DHT22;26604;53.596;10.042;2023-09-19T04:05:05;15.90;99.90
15638;DHT22;26604;53.596;10.042;2023-09-19T04:07:33;15.90;99.90
15638;DHT22;26604;53.596;10.042;2023-09-19T04:10:00;15.80;99.90
15638;DHT22;26604;53.596;10.042;2023-09-19T04:12:27;15.70;99.90
15638;DHT22;26604;53.596;10.042;2023-09-19T04:14:53;15.60;99.90
15638;DHT22;26604;53.596;10.042;2023-09-19T04:17:20;15.50;99.90
15638;DHT22;26604;53.596;10.042;2023-09-19T04:19:50;15.40;99.90
15638;DHT22;26604;53.596;10.042;2023-09-19T04:22:17;15.30;99.90
15638;DHT22;26604;53.596;10.042;2023-09-19T04:24:43;15.20;99.90
15638;DHT22;26604;53.596;10.042;2023-09-19T04:27:10;15.10;99.90
15638;DHT22;26604;53.596;10.042;2023-09-19T04:29:38;15.00;99.90
15638;DHT22;26604;53.596;10.042;2023-09-19T04:32:05;15.00;99.90
15638;DHT22;26604;53.596;10.042;2023-09-19T04:34:33;15.00;99.90
15638;DHT22;26604;53.596;10.042;2023-09-19T04:37:01;14.90;99.90
15638;DHT22;26604;53.596;10.042;2023-09-19T04:39:29;14.80;99.90
15638;DHT22;26604;53.596;10.042;2023-09-19T04:41:56;14.80;99.90
15638;DHT22;26604;53.596;10.042;2023-09-19T04:44:23;14.80;99.90
15638;DHT22;26604;53.596;10.042;2023-09-19T04:46:50;14.70;99.90
15638;DHT22;26604;53.596;10.042;2023-09-19T04:49:17;14.60;99.90
15638;DHT22;26604;53.596;10.042;2023-09-19T04:51:44;14.60;99.90
15638;DHT22;26604;53.596;10.042;2023-09-19T04:54:13;14.60;99.90
15638;DHT22;26604;53.596;10.042;2023-09-19T04:56:40;14.60;99.90
15638;DHT22;26604;53.596;10.042;2023-09-19T04:59:07;14.60;99.90
15638;DHT22;26604;53.596;10.042;2023-09-19T05:01:36;14.60;99.90
15638;DHT22;26604;53.596;10.042;2023-09-19T05:04:03;14.50;99.90
15638;DHT22;26604;53.596;10.042;2023-09-19T05:06:30;14.40;99.90
15638;DHT22;26604;53.596;10.042;2023-09-19T05:08:58;14.40;99.90
15638;DHT22;26604;53.596;10.042;2023-09-19T05:11:27;14.40;99.90
15638;DHT22;26604;53.596;10.042;2023-09-19T05:13:55;14.40;99.90
15638;DHT22;26604;53.596;10.042;2023-09-19T05:16:22;14.40;99.90
15638;DHT22;26604;53.596;10.042;2023-09-19T05:18:49;14.40;99.90
15638;DHT22;26604;53.596;10.042;2023-09-19T05:21:16;14.50;99.90
15638;DHT22;26604;53.596;10.042;2023-09-19T05:23:44;14.50;99.90
15638;DHT22;26604;53.596;10.042;2023-09-19T05:26:11;14.50;99.90
15638;DHT22;26604;53.596;10.042;2023-09-19T05:28:39;14.40;99.90
15638;DHT22;26604;53.596;10.042;2023-09-19T05:31:06;14.30;99.90
15638;DHT22;26604;53.596;10.042;2023-09-19T05:33:33;14.20;99.90
15638;DHT22;26604;53.596;10.042;2023-09-19T05:36:00;14.20;99.90
15638;DHT22;26604;53.596;10.042;2023-09-19T05:38:27;14.20;99.90
15638;DHT22;26604;53.596;10.042;2023-09-19T05:40:53;14.10;99.90
15638;DHT22;26604;53.596;10.042;2023-09-19T05:43:20;14.10;99.90
15638;DHT22;26604;53.596;10.042;2023-09-19T05:45:49;14.10;99.90
15638;DHT22;26604;53.596;10.042;2023-09-19T05:48:17;14.20;99.90
15638;DHT22;26604;53.596;10.042;2023-09-19T05:50:44;14.30;99.90
15638;DHT22;26604;53.596;10.042;2023-09-19T05:53:14;14.40;99.90
15638;DHT22;26604;53.596;10.042;2023-09-19T05:55:41;14.40;99.90
15638;DHT22;26604;53.596;10.042;2023-09-19T05:58:08;14.40;99.90
15638;DHT22;26604;53.596;10.042;2023-09-19T06:00:40;14.40;99.90
15638;DHT22;26604;53.596;10.042;2023-09-19T06:03:11;14.50;99.90
15638;DHT22;26604;53.596;10.042;2023-09-19T06:05:39;14.50;99.90
15638;DHT22;26604;53.596;10.042;2023-09-19T06:08:07;14.70;99.90
15638;DHT22;26604;53.596;10.042;2023-09-19T06:10:35;14.90;99.90
15638;DHT22;26604;53.596;10.042;2023-09-19T06:13:02;15.10;99.90
15638;DHT22;26604;53.596;10.042;2023-09-19T06:15:30;15.40;99.90
15638;DHT22;26604;53.596;10.042;2023-09-19T06:17:59;15.60;99.90
15638;DHT22;26604;53.596;10.042;2023-09-19T06:20:29;15.70;99.90
15638;DHT22;26604;53.596;10.042;2023-09-19T06:22:57;15.90;99.90
15638;DHT22;26604;53.596;10.042;2023-09-19T06:25:24;16.10;99.90
15638;DHT22;26604;53.596;10.042;2023-09-19T06:27:52;16.20;99.90
15638;DHT22;26604;53.596;10.042;2023-09-19T06:30:20;16.30;99.90
15638;DHT22;26604;53.596;10.042;2023-09-19T06:32:48;16.40;99.90
15638;DHT22;26604;53.596;10.042;2023-09-19T06:35:16;16.40;99.90
15638;DHT22;26604;53.596;10.042;2023-09-19T06:37:44;16.50;99.90
15638;DHT22;26604;53.596;10.042;2023-09-19T06:40:12;16.50;99.90
15638;DHT22;26604;53.596;10.042;2023-09-19T06:42:40;16.60;99.90
15638;DHT22;26604;53.596;10.042;2023-09-19T06:45:08;16.70;99.90
15638;DHT22;26604;53.596;10.042;2023-09-19T06:47:37;16.70;99.90
15638;DHT22;26604;53.596;10.042;2023-09-19T06:50:04;16.80;99.90
15638;DHT22;26604;53.596;10.042;2023-09-19T06:52:34;16.80;99.90
15638;DHT22;26604;53.596;10.042;2023-09-19T06:55:03;16.90;99.90
15638;DHT22;26604;53.596;10.042;2023-09-19T06:57:32;17.00;99.90
15638;DHT22;26604;53.596;10.042;2023-09-19T06:59:58;17.00;99.90
15638;DHT22;26604;53.596;10.042;2023-09-19T07:02:27;17.10;99.90
15638;DHT22;26604;53.596;10.042;2023-09-19T07:04:53;17.20;99.90
15638;DHT22;26604;53.596;10.042;2023-09-19T07:07:20;17.20;99.90
15638;DHT22;26604;53.596;10.042;2023-09-19T07:09:47;17.20;99.90
15638;DHT22;26604;53.596;10.042;2023-09-19T07:12:16;17.30;99.90
15638;DHT22;26604;53.596;10.042;2023-09-19T07:14:43;17.10;99.90
15638;DHT22;26604;53.596;10.042;2023-09-19T07:17:10;17.40;99.90
15638;DHT22;26604;53.596;10.042;2023-09-19T07:19:37;17.50;99.90
15638;DHT22;26604;53.596;10.042;2023-09-19T07:22:04;17.60;99.90
15638;DHT22;26604;53.596;10.042;2023-09-19T07:24:33;17.60;99.90
15638;DHT22;26604;53.596;10.042;2023-09-19T07:27:02;17.70;99.90
15638;DHT22;26604;53.596;10.042;2023-09-19T07:29:32;17.80;99.90
15638;DHT22;26604;53.596;10.042;2023-09-19T07:31:59;17.80;99.90
15638;DHT22;26604;53.596;10.042;2023-09-19T07:34:25;17.90;99.90
15638;DHT22;26604;53.596;10.042;2023-09-19T07:36:52;17.90;99.90
15638;DHT22;26604;53.596;10.042;2023-09-19T07:39:19;17.80;99.90
15638;DHT22;26604;53.596;10.042;2023-09-19T07:41:46;17.80;99.90
15638;DHT22;26604;53.596;10.042;2023-09-19T07:44:14;17.80;99.90
15638;DHT22;26604;53.596;10.042;2023-09-19T07:46:42;17.80;99.90
15638;DHT22;26604;53.596;10.042;2023-09-19T07:49:09;17.80;99.90
15638;DHT22;26604;53.596;10.042;2023-09-19T07:51:36;17.70;99.90
15638;DHT22;26604;53.596;10.042;2023-09-19T07:54:04;17.50;99.90
15638;DHT22;26604;53.596;10.042;2023-09-19T07:56:31;17.30;99.90
15638;DHT22;26604;53.596;10.042;2023-09-19T07:58:59;17.20;99.90
15638;DHT22;26604;53.596;10.042;2023-09-19T08:01:26;16.90;99.90
15638;DHT22;26604;53.596;10.042;2023-09-19T08:03:55;16.10;99.90
15638;DHT22;26604;53.596;10.042;2023-09-19T08:06:22;15.60;99.90
15638;DHT22;26604;53.596;10.042;2023-09-19T08:08:51;15.30;99.90
15638;DHT22;26604;53.596;10.042;2023-09-19T08:11:20;15.10;99.90
15638;DHT22;26604;53.596;10.042;2023-09-19T08:13:50;15.00;99.90
15638;DHT22;26604;53.596;10.042;2023-09-19T08:16:17;15.10;99.90
15638;DHT22;26604;53.596;10.042;2023-09-19T08:18:47;15.20;99.90
15638;DHT22;26604;53.596;10.042;2023-09-19T08:21:15;15.30;99.90
15638;DHT22;26604;53.596;10.042;2023-09-19T08:23:42;15.50;99.90
15638;DHT22;26604;53.596;10.042;2023-09-19T08:26:10;15.70;99.90
15638;DHT22;26604;53.596;10.042;2023-09-19T08:28:37;16.00;99.90
15638;DHT22;26604;53.596;10.042;2023-09-19T08:31:07;16.30;99.90
15638;DHT22;26604;53.596;10.042;2023-09-19T08:33:38;16.50;99.90
15638;DHT22;26604;53.596;10.042;2023-09-19T08:36:06;16.70;99.90
15638;DHT22;26604;53.596;10.042;2023-09-19T08:38:36;16.80;99.90
15638;DHT22;26604;53.596;10.042;2023-09-19T08:41:06;16.90;99.90
15638;DHT22;26604;53.596;10.042;2023-09-19T08:43:33;17.00;99.90
15638;DHT22;26604;53.596;10.042;2023-09-19T08:46:07;17.10;99.90
15638;DHT22;26604;53.596;10.042;2023-09-19T08:48:39;17.20;99.90
15638;DHT22;26604;53.596;10.042;2023-09-19T08:51:12;17.20;99.90
15638;DHT22;26604;53.596;10.042;2023-09-19T08:53:50;17.30;99.90
15638;DHT22;26604;53.596;10.042;2023-09-19T08:56:19;17.40;99.90
15638;DHT22;26604;53.596;10.042;2023-09-19T08:58:51;17.50;99.90
15638;DHT22;26604;53.596;10.042;2023-09-19T09:01:21;17.60;99.90
15638;DHT22;26604;53.596;10.042;2023-09-19T09:03:51;17.70;99.90
15638;DHT22;26604;53.596;10.042;2023-09-19T09:06:21;17.80;99.90
15638;DHT22;26604;53.596;10.042;2023-09-19T09:08:50;17.90;99.90
15638;DHT22;26604;53.596;10.042;2023-09-19T09:11:18;18.10;99.90
15638;DHT22;26604;53.596;10.042;2023-09-19T09:13:45;18.20;99.90
15638;DHT22;26604;53.596;10.042;2023-09-19T09:16:12;18.20;99.90
15638;DHT22;26604;53.596;10.042;2023-09-19T09:18:39;18.30;99.90
15638;DHT22;26604;53.596;10.042;2023-09-19T09:21:06;18.40;99.90
15638;DHT22;26604;53.596;10.042;2023-09-19T09:23:33;18.40;99.90
15638;DHT22;26604;53.596;10.042;2023-09-19T09:26:02;18.40;99.90
15638;DHT22;26604;53.596;10.042;2023-09-19T09:28:32;18.60;99.90
15638;DHT22;26604;53.596;10.042;2023-09-19T09:31:00;18.70;99.90
15638;DHT22;26604;53.596;10.042;2023-09-19T09:33:29;18.90;99.90
15638;DHT22;26604;53.596;10.042;2023-09-19T09:35:58;19.10;99.90
15638;DHT22;26604;53.596;10.042;2023-09-19T09:38:27;19.30;99.90
15638;DHT22;26604;53.596;10.042;2023-09-19T09:40:57;19.40;99.90
15638;DHT22;26604;53.596;10.042;2023-09-19T09:43:34;19.40;99.90
15638;DHT22;26604;53.596;10.042;2023-09-19T09:46:10;19.50;99.90
15638;DHT22;26604;53.596;10.042;2023-09-19T09:49:07;19.60;99.90
15638;DHT22;26604;53.596;10.042;2023-09-19T09:51:59;19.70;99.90
15638;DHT22;26604;53.596;10.042;2023-09-19T09:54:27;19.80;99.90
15638;DHT22;26604;53.596;10.042;2023-09-19T09:57:03;19.90;99.90
15638;DHT22;26604;53.596;10.042;2023-09-19T09:59:50;20.00;99.90
15638;DHT22;26604;53.596;10.042;2023-09-19T10:02:20;19.90;99.90
15638;DHT22;26604;53.596;10.042;2023-09-19T10:04:53;20.00;99.90
15638;DHT22;26604;53.596;10.042;2023-09-19T10:07:33;20.00;99.90
15638;DHT22;26604;53.596;10.042;2023-09-19T10:10:04;20.10;99.90
15638;DHT22;26604;53.596;10.042;2023-09-19T10:12:43;20.00;99.90
15638;DHT22;26604;53.596;10.042;2023-09-19T10:15:14;20.10;99.90
15638;DHT22;26604;53.596;10.042;2023-09-19T10:17:43;20.20;99.90
15638;DHT22;26604;53.596;10.042;2023-09-19T10:20:16;20.30;99.90
15638;DHT22;26604;53.596;10.042;2023-09-19T10:23:03;20.30;99.90
15638;DHT22;26604;53.596;10.042;2023-09-19T10:25:37;20.40;99.90
15638;DHT22;26604;53.596;10.042;2023-09-19T10:28:06;20.40;99.90
15638;DHT22;26604;53.596;10.042;2023-09-19T10:30:38;20.50;99.90
15638;DHT22;26604;53.596;10.042;2023-09-19T10:33:09;20.50;99.90
15638;DHT22;26604;53.596;10.042;2023-09-19T10:35:39;20.60;99.90
15638;DHT22;26604;53.596;10.042;2023-09-19T10:38:10;20.60;99.90
15638;DHT22;26604;53.596;10.042;2023-09-19T10:40:38;20.50;99.90
15638;DHT22;26604;53.596;10.042;2023-09-19T10:43:12;20.50;99.90
15638;DHT22;26604;53.596;10.042;2023-09-19T10:45:41;20.50;99.90
15638;DHT22;26604;53.596;10.042;2023-09-19T10:48:10;20.60;99.90
15638;DHT22;26604;53.596;10.042;2023-09-19T10:50:45;20.80;99.90
15638;DHT22;26604;53.596;10.042;2023-09-19T10:53:15;20.80;99.90
15638;DHT22;26604;53.596;10.042;2023-09-19T10:58:25;21.20;99.90
15638;DHT22;26604;53.596;10.042;2023-09-19T11:00:55;21.30;99.90
15638;DHT22;26604;53.596;10.042;2023-09-19T11:03:23;21.40;99.90
15638;DHT22;26604;53.596;10.042;2023-09-19T11:06:18;21.40;99.90
15638;DHT22;26604;53.596;10.042;2023-09-19T11:09:01;21.40;99.90
15638;DHT22;26604;53.596;10.042;2023-09-19T11:11:49;21.50;99.90
15638;DHT22;26604;53.596;10.042;2023-09-19T11:14:39;21.50;99.90
15638;DHT22;26604;53.596;10.042;2023-09-19T11:17:40;21.50;99.90
15638;DHT22;26604;53.596;10.042;2023-09-19T11:20:25;21.50;99.90
15638;DHT22;26604;53.596;10.042;2023-09-19T11:23:24;21.30;99.90
15638;DHT22;26604;53.596;10.042;2023-09-19T11:25:55;21.10;99.90
15638;DHT22;26604;53.596;10.042;2023-09-19T11:28:32;21.00;99.90
15638;DHT22;26604;53.596;10.042;2023-09-19T11:30:58;20.90;99.90
15638;DHT22;26604;53.596;10.042;2023-09-19T11:33:27;21.00;99.90
15638;DHT22;26604;53.596;10.042;2023-09-19T11:35:59;21.20;99.90
15638;DHT22;26604;53.596;10.042;2023-09-19T11:41:41;21.60;99.90
15638;DHT22;26604;53.596;10.042;2023-09-19T11:44:33;21.80;99.90
15638;DHT22;26604;53.596;10.042;2023-09-19T11:47:06;22.00;99.90
15638;DHT22;26604;53.596;10.042;2023-09-19T11:49:35;22.10;99.90
15638;DHT22;26604;53.596;10.042;2023-09-19T11:52:08;22.00;99.90
15638;DHT22;26604;53.596;10.042;2023-09-19T11:54:36;21.90;99.90
15638;DHT22;26604;53.596;10.042;2023-09-19T11:57:09;21.90;99.90
15638;DHT22;26604;53.596;10.042;2023-09-19T11:59:39;21.90;99.90
15638;DHT22;26604;53.596;10.042;2023-09-19T12:02:07;21.90;99.90
15638;DHT22;26604;53.596;10.042;2023-09-19T12:04:34;21.90;99.90
15638;DHT22;26604;53.596;10.042;2023-09-19T12:07:04;21.70;99.90
15638;DHT22;26604;53.596;10.042;2023-09-19T12:09:32;21.70;99.90
15638;DHT22;26604;53.596;10.042;2023-09-19T12:11:59;21.80;99.90
15638;DHT22;26604;53.596;10.042;2023-09-19T12:14:27;21.80;99.90
15638;DHT22;26604;53.596;10.042;2023-09-19T12:16:54;21.70;99.90
15638;DHT22;26604;53.596;10.042;2023-09-19T12:19:22;21.70;99.90
15638;DHT22;26604;53.596;10.042;2023-09-19T12:21:57;21.80;99.90
15638;DHT22;26604;53.596;10.042;2023-09-19T12:24:25;21.80;99.90
15638;DHT22;26604;53.596;10.042;2023-09-19T12:26:59;21.90;99.90
15638;DHT22;26604;53.596;10.042;2023-09-19T12:29:28;22.00;99.90
15638;DHT22;26604;53.596;10.042;2023-09-19T12:31:56;21.90;99.90
15638;DHT22;26604;53.596;10.042;2023-09-19T12:34:25;21.90;99.90
15638;DHT22;26604;53.596;10.042;2023-09-19T12:37:09;21.90;99.90
15638;DHT22;26604;53.596;10.042;2023-09-19T12:39:42;22.00;99.90
15638;DHT22;26604;53.596;10.042;2023-09-19T12:42:15;21.90;99.90
15638;DHT22;26604;53.596;10.042;2023-09-19T12:44:44;22.00;99.90
15638;DHT22;26604;53.596;10.042;2023-09-19T12:47:13;22.00;99.90
15638;DHT22;26604;53.596;10.042;2023-09-19T12:50:06;21.90;99.90
15638;DHT22;26604;53.596;10.042;2023-09-19T12:52:39;21.90;99.90
15638;DHT22;26604;53.596;10.042;2023-09-19T12:55:06;21.80;99.90
15638;DHT22;26604;53.596;10.042;2023-09-19T12:57:35;21.80;99.90
15638;DHT22;26604;53.596;10.042;2023-09-19T13:00:04;21.80;99.90
15638;DHT22;26604;53.596;10.042;2023-09-19T13:02:31;21.80;99.90
15638;DHT22;26604;53.596;10.042;2023-09-19T13:04:58;21.70;99.90
15638;DHT22;26604;53.596;10.042;2023-09-19T13:07:43;21.80;99.90
15638;DHT22;26604;53.596;10.042;2023-09-19T13:10:15;21.90;99.90
15638;DHT22;26604;53.596;10.042;2023-09-19T13:12:43;22.10;99.90
15638;DHT22;26604;53.596;10.042;2023-09-19T13:15:15;22.20;99.90
15638;DHT22;26604;53.596;10.042;2023-09-19T13:17:46;22.50;99.90
15638;DHT22;26604;53.596;10.042;2023-09-19T13:20:24;22.60;99.90
15638;DHT22;26604;53.596;10.042;2023-09-19T13:22:55;22.70;99.90
15638;DHT22;26604;53.596;10.042;2023-09-19T13:25:24;22.70;99.90
15638;DHT22;26604;53.596;10.042;2023-09-19T13:27:52;22.60;99.90
15638;DHT22;26604;53.596;10.042;2023-09-19T13:30:22;22.40;99.90
15638;DHT22;26604;53.596;10.042;2023-09-19T13:32:51;22.40;99.90
15638;DHT22;26604;53.596;10.042;2023-09-19T13:35:18;22.40;99.90
15638;DHT22;26604;53.596;10.042;2023-09-19T13:37:48;22.50;99.90
15638;DHT22;26604;53.596;10.042;2023-09-19T13:40:17;22.40;99.90
15638;DHT22;26604;53.596;10.042;2023-09-19T13:42:44;22.40;99.90
15638;DHT22;26604;53.596;10.042;2023-09-19T13:45:11;22.50;99.90
15638;DHT22;26604;53.596;10.042;2023-09-19T13:47:42;22.60;99.90
15638;DHT22;26604;53.596;10.042;2023-09-19T13:50:09;22.60;99.90
15638;DHT22;26604;53.596;10.042;2023-09-19T13:52:37;22.60;99.90
15638;DHT22;26604;53.596;10.042;2023-09-19T13:55:04;22.60;99.90
15638;DHT22;26604;53.596;10.042;2023-09-19T13:57:32;22.80;99.90
15638;DHT22;26604;53.596;10.042;2023-09-19T13:59:59;22.80;99.90
15638;DHT22;26604;53.596;10.042;2023-09-19T14:02:26;22.70;99.90
15638;DHT22;26604;53.596;10.042;2023-09-19T14:04:54;22.60;99.90
15638;DHT22;26604;53.596;10.042;2023-09-19T14:07:21;22.40;99.90
15638;DHT22;26604;53.596;10.042;2023-09-19T14:09:48;22.20;99.90
15638;DHT22;26604;53.596;10.042;2023-09-19T14:12:15;22.00;99.90
15638;DHT22;26604;53.596;10.042;2023-09-19T14:14:42;21.80;99.90
15638;DHT22;26604;53.596;10.042;2023-09-19T14:17:10;21.60;99.90
15638;DHT22;26604;53.596;10.042;2023-09-19T14:19:37;21.40;99.90
15638;DHT22;26604;53.596;10.042;2023-09-19T14:22:05;21.30;99.90
15638;DHT22;26604;53.596;10.042;2023-09-19T14:24:33;21.30;99.90
15638;DHT22;26604;53.596;10.042;2023-09-19T14:27:00;21.30;99.90
15638;DHT22;26604;53.596;10.042;2023-09-19T14:29:29;21.20;99.90
15638;DHT22;26604;53.596;10.042;2023-09-19T14:31:56;21.10;99.90
15638;DHT22;26604;53.596;10.042;2023-09-19T14:34:23;21.10;99.90
15638;DHT22;26604;53.596;10.042;2023-09-19T14:36:50;21.10;99.90
15638;DHT22;26604;53.596;10.042;2023-09-19T14:39:18;21.20;99.90
15638;DHT22;26604;53.596;10.042;2023-09-19T14:41:45;21.20;99.90
15638;DHT22;26604;53.596;10.042;2023-09-19T14:44:12;21.20;99.90
15638;DHT22;26604;53.596;10.042;2023-09-19T14:46:41;21.20;99.90
15638;DHT22;26604;53.596;10.042;2023-09-19T14:49:09;21.20;99.90
15638;DHT22;26604;53.596;10.042;2023-09-19T14:51:36;21.10;99.90
15638;DHT22;26604;53.596;10.042;2023-09-19T14:54:05;21.00;99.90
15638;DHT22;26604;53.596;10.042;2023-09-19T14:56:34;21.00;99.90
15638;DHT22;26604;53.596;10.042;2023-09-19T14:59:01;21.00;99.90
15638;DHT22;26604;53.596;10.042;2023-09-19T15:01:29;20.90;99.90
15638;DHT22;26604;53.596;10.042;2023-09-19T15:03:57;20.80;99.90
15638;DHT22;26604;53.596;10.042;2023-09-19T15:06:26;20.70;99.90
15638;DHT22;26604;53.596;10.042;2023-09-19T15:08:53;20.60;99.90
15638;DHT22;26604;53.596;10.042;2023-09-19T15:11:20;20.60;99.90
15638;DHT22;26604;53.596;10.042;2023-09-19T15:13:51;20.60;99.90
15638;DHT22;26604;53.596;10.042;2023-09-19T15:16:19;20.50;99.90
15638;DHT22;26604;53.596;10.042;2023-09-19T15:18:46;20.50;99.90
15638;DHT22;26604;53.596;10.042;2023-09-19T15:21:14;20.30;99.90
15638;DHT22;26604;53.596;10.042;2023-09-19T15:23:42;20.20;99.90
15638;DHT22;26604;53.596;10.042;2023-09-19T15:26:11;20.20;99.90
15638;DHT22;26604;53.596;10.042;2023-09-19T15:28:38;20.10;99.90
15638;DHT22;26604;53.596;10.042;2023-09-19T15:31:08;20.10;99.90
15638;DHT22;26604;53.596;10.042;2023-09-19T15:33:36;20.00;99.90
15638;DHT22;26604;53.596;10.042;2023-09-19T15:36:04;20.00;99.90
15638;DHT22;26604;53.596;10.042;2023-09-19T15:38:31;20.10;99.90
15638;DHT22;26604;53.596;10.042;2023-09-19T15:40:58;20.10;99.90